createdAt,value
2022-08-24T00:00:01.353Z,99822.00
2022-08-24T00:02:28.717Z,99826.73
2022-08-24T00:04:55.630Z,99830.11
2022-08-24T00:07:27.372Z,99833.90
2022-08-24T00:09:54.670Z,99839.40
2022-08-24T00:12:21.508Z,99838.60
2022-08-24T00:14:49.545Z,99839.46
2022-08-24T00:17:17.183Z,99838.48
2022-08-24T00:19:44.256Z,99839.98
2022-08-24T00:22:11.018Z,99841.54
2022-08-24T00:24:37.794Z,99842.30
2022-08-24T00:27:06.543Z,99848.52
2022-08-24T00:29:33.695Z,99848.20
2022-08-24T00:32:00.639Z,99847.00
2022-08-24T00:34:27.897Z,99850.48
2022-08-24T00:36:54.706Z,99854.13
2022-08-24T00:39:21.628Z,99854.84
2022-08-24T00:41:49.286Z,99856.88
2022-08-24T00:44:16.913Z,99854.22
2022-08-24T00:46:56.998Z,99856.09
2022-08-24T00:49:29.830Z,99853.02
2022-08-24T00:52:04.743Z,99851.98
2022-08-24T00:54:33.818Z,99853.63
2022-08-24T00:57:02.743Z,99851.81
2022-08-24T00:59:32.915Z,99848.92
2022-08-24T01:02:01.260Z,99852.42
2022-08-24T01:04:46.027Z,99851.54
2022-08-24T01:07:13.017Z,99849.68
2022-08-24T01:09:40.423Z,99850.24
2022-08-24T01:12:07.381Z,99851.73
2022-08-24T01:14:34.800Z,99854.88
2022-08-24T01:17:20.202Z,99856.70
2022-08-24T01:19:49.178Z,99855.83
2022-08-24T01:22:34.679Z,99858.67
2022-08-24T01:25:01.691Z,99860.31
2022-08-24T01:27:28.519Z,99861.86
2022-08-24T01:29:55.943Z,99860.53
2022-08-24T01:32:23.716Z,99860.58
2022-08-24T01:34:50.506Z,99867.42
2022-08-24T01:37:17.249Z,99866.35
2022-08-24T01:39:44.969Z,99871.48
2022-08-24T01:42:12.149Z,99871.67
2022-08-24T01:44:42.300Z,99871.86
2022-08-24T01:47:10.421Z,99875.46
2022-08-24T01:49:43.736Z,99875.34
2022-08-24T01:52:12.818Z,99878.77
2022-08-24T01:54:43.579Z,99874.67
2022-08-24T01:57:10.714Z,99877.06
2022-08-24T01:59:42.053Z,99878.05
2022-08-24T02:02:16.828Z,99877.73
2022-08-24T02:04:44.369Z,99880.05
2022-08-24T02:07:12.498Z,99885.42
2022-08-24T02:09:39.353Z,99883.38
2022-08-24T02:12:06.895Z,99882.16
2022-08-24T02:14:35.072Z,99883.75
2022-08-24T02:17:04.541Z,99881.77
2022-08-24T02:19:31.654Z,99882.91
2022-08-24T02:22:00.556Z,99881.05
2022-08-24T02:24:28.218Z,99877.83
2022-08-24T02:26:55.758Z,99885.44
2022-08-24T02:29:22.475Z,99883.82
2022-08-24T02:31:49.851Z,99878.86
2022-08-24T02:34:16.960Z,99883.59
2022-08-24T02:36:43.773Z,99882.19
2022-08-24T02:39:10.587Z,99881.66
2022-08-24T02:41:37.829Z,99885.35
2022-08-24T02:44:05.087Z,99883.02
2022-08-24T02:46:32.765Z,99886.80
2022-08-24T02:49:11.155Z,99884.86
2022-08-24T02:51:44.127Z,99887.34
2022-08-24T02:54:17.665Z,99887.01
2022-08-24T02:56:45.310Z,99887.21
2022-08-24T02:59:12.414Z,99889.92
2022-08-24T03:01:39.611Z,99889.34
2022-08-24T03:04:06.416Z,99892.83
2022-08-24T03:06:33.643Z,99894.36
2022-08-24T03:09:00.635Z,99897.33
2022-08-24T03:11:28.425Z,99898.75
2022-08-24T03:13:57.533Z,99895.43
2022-08-24T03:16:24.683Z,99898.52
2022-08-24T03:18:51.831Z,99897.30
2022-08-24T03:21:18.805Z,99901.83
2022-08-24T03:23:46.944Z,99899.66
2022-08-24T03:26:13.726Z,99900.58
2022-08-24T03:28:40.791Z,99901.56
2022-08-24T03:31:07.771Z,99894.96
2022-08-24T03:33:34.535Z,99897.42
2022-08-24T03:36:01.385Z,99897.42
2022-08-24T03:38:28.495Z,99901.64
2022-08-24T03:40:55.700Z,99904.58
2022-08-24T03:43:41.396Z,99905.45
2022-08-24T03:46:08.935Z,99906.95
2022-08-24T03:48:36.734Z,99910.06
2022-08-24T03:51:03.579Z,99907.88
2022-08-24T03:53:31.550Z,99909.10
2022-08-24T03:55:58.880Z,99912.45
2022-08-24T03:58:28.470Z,99916.64
2022-08-24T04:00:56.029Z,99916.98
2022-08-24T04:03:23.552Z,99919.99
2022-08-24T04:05:54.090Z,99916.90
2022-08-24T04:08:21.733Z,99916.45
2022-08-24T04:10:48.662Z,99916.66
2022-08-24T04:13:17.395Z,99915.08
2022-08-24T04:15:44.260Z,99915.48
2022-08-24T04:18:11.191Z,99912.28
2022-08-24T04:20:41.925Z,99910.58
2022-08-24T04:23:10.034Z,99910.78
2022-08-24T04:25:44.350Z,99911.16
2022-08-24T04:28:11.727Z,99912.91
2022-08-24T04:30:42.769Z,99912.77
2022-08-24T04:33:12.023Z,99919.64
2022-08-24T04:35:40.062Z,99913.55
2022-08-24T04:38:07.607Z,99914.46
2022-08-24T04:40:34.618Z,99915.63
2022-08-24T04:43:03.410Z,99915.58
2022-08-24T04:45:31.246Z,99912.10
2022-08-24T04:47:58.098Z,99910.61
2022-08-24T04:50:26.050Z,99909.92
2022-08-24T04:52:52.839Z,99904.88
2022-08-24T04:55:19.820Z,99907.47
2022-08-24T04:57:46.602Z,99909.14
2022-08-24T05:00:13.730Z,99904.48
2022-08-24T05:02:45.076Z,99902.68
2022-08-24T05:05:12.767Z,99902.79
2022-08-24T05:07:39.524Z,99903.98
2022-08-24T05:10:07.378Z,99897.70
2022-08-24T05:12:35.757Z,99898.13
2022-08-24T05:15:04.160Z,99897.13
2022-08-24T05:17:34.351Z,99898.34
2022-08-24T05:20:01.247Z,99902.71
2022-08-24T05:22:29.370Z,99900.25
2022-08-24T05:24:58.111Z,99902.09
2022-08-24T05:27:25.138Z,99902.21
2022-08-24T05:29:55.477Z,99897.13
2022-08-24T05:32:22.313Z,99894.36
2022-08-24T05:34:49.506Z,99894.61
2022-08-24T05:37:16.354Z,99890.25
2022-08-24T05:40:19.231Z,99888.84
2022-08-24T05:43:07.539Z,99892.79
2022-08-24T05:45:34.339Z,99889.31
2022-08-24T05:48:01.276Z,99891.80
2022-08-24T05:50:55.017Z,99891.33
2022-08-24T05:53:22.462Z,99895.08
2022-08-24T05:55:49.788Z,99892.60
2022-08-24T05:58:23.187Z,99900.19
2022-08-24T06:00:59.310Z,99902.25
2022-08-24T06:03:26.906Z,99903.80
2022-08-24T06:05:55.009Z,99905.80
2022-08-24T06:08:22.092Z,99908.02
2022-08-24T06:10:49.832Z,99910.19
2022-08-24T06:13:16.782Z,99909.30
2022-08-24T06:15:50.965Z,99909.89
2022-08-24T06:18:26.697Z,99916.02
2022-08-24T06:20:57.260Z,99916.63
2022-08-24T06:23:24.711Z,99920.14
2022-08-24T06:26:20.194Z,99922.34
2022-08-24T06:28:49.342Z,99925.52
2022-08-24T06:31:16.691Z,99925.10
2022-08-24T06:33:43.576Z,99928.86
2022-08-24T06:36:10.288Z,99927.72
2022-08-24T06:38:37.603Z,99930.98
2022-08-24T06:41:05.131Z,99928.36
2022-08-24T06:43:34.583Z,99935.52
2022-08-24T06:46:09.612Z,99936.08
2022-08-24T06:48:40.170Z,99934.79
2022-08-24T06:51:11.906Z,99938.59
2022-08-24T06:53:39.059Z,99940.05
2022-08-24T06:56:06.628Z,99939.70
2022-08-24T06:58:33.752Z,99941.88
2022-08-24T07:01:24.831Z,99943.33
2022-08-24T07:03:51.885Z,99943.06
2022-08-24T07:06:38.801Z,99946.87
2022-08-24T07:09:05.661Z,99947.10
2022-08-24T07:11:34.993Z,99949.39
2022-08-24T07:14:02.219Z,99946.82
2022-08-24T07:16:29.072Z,99946.29
2022-08-24T07:18:59.569Z,99943.52
2022-08-24T07:21:26.837Z,99949.98
2022-08-24T07:23:57.854Z,99947.95
2022-08-24T07:26:25.677Z,99949.34
2022-08-24T07:29:07.079Z,99949.36
2022-08-24T07:31:39.801Z,99951.29
2022-08-24T07:34:11.382Z,99946.19
2022-08-24T07:36:43.543Z,99953.39
2022-08-24T07:39:11.401Z,99953.81
2022-08-24T07:41:56.840Z,99959.02
2022-08-24T07:44:26.906Z,99959.38
2022-08-24T07:46:54.940Z,99961.60
2022-08-24T07:49:36.185Z,99969.15
2022-08-24T07:52:04.450Z,99960.80
2022-08-24T07:54:31.200Z,99952.30
2022-08-24T07:56:59.574Z,99950.91
2022-08-24T07:59:26.717Z,99952.94
2022-08-24T08:01:53.564Z,99948.23
2022-08-24T08:04:22.098Z,99947.16
2022-08-24T08:06:49.324Z,99952.52
2022-08-24T08:09:16.194Z,99955.16
2022-08-24T08:11:43.134Z,99956.61
2022-08-24T08:14:09.900Z,99954.93
2022-08-24T08:16:38.384Z,99957.64
2022-08-24T08:19:12.503Z,99961.36
2022-08-24T08:22:04.860Z,99954.26
2022-08-24T08:24:33.801Z,99957.48
2022-08-24T08:27:00.843Z,99955.19
2022-08-24T08:29:34.158Z,99962.41
2022-08-24T08:32:01.246Z,99963.04
2022-08-24T08:34:29.308Z,99960.09
2022-08-24T08:36:56.373Z,99960.50
2022-08-24T08:39:23.499Z,99963.09
2022-08-24T08:42:00.516Z,99961.31
2022-08-24T08:47:54.322Z,99960.05
2022-08-24T08:50:30.735Z,99961.37
2022-08-24T08:53:45.412Z,99959.41
2022-08-24T08:56:38.191Z,99957.02
2022-08-24T08:59:23.001Z,99959.76
2022-08-24T09:02:07.528Z,99955.50
2022-08-24T09:04:56.552Z,99955.29
2022-08-24T09:07:47.105Z,99954.15
2022-08-24T09:10:41.227Z,99953.67
2022-08-24T09:13:17.727Z,99950.88
2022-08-24T09:15:57.575Z,99951.00
2022-08-24T09:18:41.455Z,99951.55
2022-08-24T09:21:46.580Z,99952.42
2022-08-24T09:24:33.150Z,99951.13
2022-08-24T09:27:08.009Z,99948.20
2022-08-24T09:30:03.755Z,99948.80
2022-08-24T09:32:33.511Z,99950.74
2022-08-24T09:35:10.618Z,99946.79
2022-08-24T09:37:59.895Z,99949.75
2022-08-24T09:40:37.230Z,99943.88
2022-08-24T09:43:13.225Z,99945.30
2022-08-24T09:46:04.994Z,99944.49
2022-08-24T09:48:53.100Z,99943.19
2022-08-24T09:51:44.194Z,99941.47
2022-08-24T09:54:49.307Z,99940.38
2022-08-24T09:57:59.325Z,99940.54
2022-08-24T10:00:27.581Z,99940.73
2022-08-24T10:03:03.110Z,99942.34
2022-08-24T10:05:50.218Z,99943.14
2022-08-24T10:08:56.132Z,99943.99
2022-08-24T10:11:33.562Z,99940.50
2022-08-24T10:14:25.860Z,99940.02
2022-08-24T10:17:14.465Z,99936.70
2022-08-24T10:20:01.477Z,99938.67
2022-08-24T10:22:47.066Z,99936.83
2022-08-24T10:25:22.690Z,99939.08
2022-08-24T10:28:01.291Z,99935.27
2022-08-24T10:30:56.622Z,99938.61
2022-08-24T10:33:56.631Z,99941.07
2022-08-24T10:36:44.727Z,99945.66
2022-08-24T10:39:36.395Z,99945.17
2022-08-24T10:42:37.546Z,99940.73
2022-08-24T10:45:15.883Z,99946.25
2022-08-24T10:47:54.360Z,99941.19
2022-08-24T10:50:56.585Z,99942.63
2022-08-24T10:53:30.871Z,99936.82
2022-08-24T10:56:11.086Z,99937.33
2022-08-24T10:58:37.814Z,99933.69
2022-08-24T11:01:24.531Z,99933.48
2022-08-24T11:03:57.425Z,99930.73
2022-08-24T11:06:25.369Z,99921.88
2022-08-24T11:09:01.105Z,99926.64
2022-08-24T11:11:40.602Z,99924.25
2022-08-24T11:14:16.757Z,99924.42
2022-08-24T11:16:45.982Z,99920.49
2022-08-24T11:19:29.735Z,99920.36
2022-08-24T11:21:58.263Z,99919.58
2022-08-24T11:24:26.447Z,99916.16
2022-08-24T11:27:01.060Z,99917.85
2022-08-24T11:29:51.288Z,99914.56
2022-08-24T11:32:46.014Z,99913.84
2022-08-24T11:35:36.342Z,99908.48
2022-08-24T11:38:06.192Z,99910.30
2022-08-24T11:40:36.366Z,99904.80
2022-08-24T11:43:12.606Z,99905.36
2022-08-24T11:46:14.121Z,99901.56
2022-08-24T11:48:59.768Z,99901.52
2022-08-24T11:51:32.495Z,99896.02
2022-08-24T11:54:19.405Z,99896.44
2022-08-24T11:56:52.341Z,99895.55
2022-08-24T11:59:37.832Z,99894.66
2022-08-24T12:02:08.293Z,99894.21
2022-08-24T12:04:49.566Z,99894.08
2022-08-24T12:07:34.601Z,99889.20
2022-08-24T12:10:28.601Z,99892.45
2022-08-24T12:13:04.765Z,99892.23
2022-08-24T12:15:52.131Z,99888.98
2022-08-24T12:18:32.906Z,99883.23
2022-08-24T12:21:00.091Z,99884.94
2022-08-24T12:23:29.650Z,99880.07
2022-08-24T12:26:02.522Z,99879.08
2022-08-24T12:28:33.333Z,99879.27
2022-08-24T12:31:07.939Z,99884.76
2022-08-24T12:33:37.507Z,99886.91
2022-08-24T12:36:11.296Z,99891.11
2022-08-24T12:38:45.085Z,99889.98
2022-08-24T12:41:28.025Z,99888.55
2022-08-24T12:44:11.563Z,99890.15
2022-08-24T12:46:38.882Z,99885.05
2022-08-24T12:49:18.145Z,99881.61
2022-08-24T12:52:03.886Z,99887.69
2022-08-24T12:54:52.468Z,99883.73
2022-08-24T12:58:03.735Z,99887.33
2022-08-24T13:00:33.485Z,99877.45
2022-08-24T13:03:03.981Z,99886.38
2022-08-24T13:05:45.684Z,99889.27
2022-08-24T13:08:23.932Z,99886.41
2022-08-24T13:11:01.928Z,99880.73
2022-08-24T13:13:48.500Z,99880.77
2022-08-24T13:16:49.249Z,99884.39
2022-08-24T13:19:31.715Z,99884.64
2022-08-24T13:22:16.002Z,99887.20
2022-08-24T13:25:19.328Z,99885.32
2022-08-24T13:27:48.083Z,99888.14
2022-08-24T13:30:26.522Z,99886.08
2022-08-24T13:33:06.057Z,99887.88
2022-08-24T13:35:38.950Z,99885.66
2022-08-24T13:38:24.515Z,99886.95
2022-08-24T13:41:01.711Z,99882.89
2022-08-24T13:43:52.009Z,99880.90
2022-08-24T13:46:56.575Z,99882.60
2022-08-24T13:49:39.968Z,99885.89
2022-08-24T13:52:38.948Z,99880.58
2022-08-24T13:55:21.134Z,99882.48
2022-08-24T13:58:18.314Z,99890.63
2022-08-24T14:01:11.983Z,99881.53
2022-08-24T14:03:57.997Z,99887.86
2022-08-24T14:06:30.969Z,99889.04
2022-08-24T14:09:37.962Z,99886.22
2022-08-24T14:12:30.708Z,99885.71
2022-08-24T14:15:09.401Z,99892.75
2022-08-24T14:17:55.940Z,99890.17
2022-08-24T14:21:01.283Z,99890.26
2022-08-24T14:23:45.307Z,99889.84
2022-08-24T14:26:33.662Z,99890.31
2022-08-24T14:29:16.361Z,99892.92
2022-08-24T14:32:00.095Z,99891.93
2022-08-24T14:34:48.875Z,99899.84
2022-08-24T14:37:19.034Z,99897.39
2022-08-24T14:40:16.276Z,99900.41
2022-08-24T14:42:56.969Z,99895.05
2022-08-24T14:45:34.623Z,99900.29
2022-08-24T14:48:08.397Z,99901.27
2022-08-24T14:50:45.939Z,99904.44
2022-08-24T14:53:25.211Z,99905.09
2022-08-24T14:56:31.817Z,99901.66
2022-08-24T14:59:16.959Z,99903.70
2022-08-24T15:01:46.008Z,99901.13
2022-08-24T15:04:37.516Z,99905.25
2022-08-24T15:07:35.378Z,99904.95
2022-08-24T15:10:02.958Z,99901.70
2022-08-24T15:12:36.465Z,99900.68
2022-08-24T15:15:12.588Z,99902.52
2022-08-24T15:17:45.237Z,99904.39
2022-08-24T15:20:20.651Z,99904.61
2022-08-24T15:23:04.415Z,99904.80
2022-08-24T15:25:41.093Z,99905.63
2022-08-24T15:28:12.294Z,99904.84
2022-08-24T15:30:40.450Z,99908.00
2022-08-24T15:33:19.104Z,99906.00
2022-08-24T15:35:48.228Z,99908.17
2022-08-24T15:38:21.174Z,99907.14
2022-08-24T15:40:50.143Z,99904.23
2022-08-24T15:43:17.627Z,99913.38
2022-08-24T15:45:50.247Z,99915.46
2022-08-24T15:48:18.713Z,99915.79
2022-08-24T15:50:47.131Z,99919.65
2022-08-24T15:53:40.057Z,99916.50
2022-08-24T15:56:30.147Z,99919.84
2022-08-24T15:59:12.449Z,99919.26
2022-08-24T16:01:58.280Z,99927.34
2022-08-24T16:04:48.979Z,99925.38
2022-08-24T16:07:27.729Z,99923.65
2022-08-24T16:10:04.025Z,99924.49
2022-08-24T16:12:32.679Z,99928.13
2022-08-24T16:15:19.945Z,99929.50
2022-08-24T16:17:51.536Z,99930.17
2022-08-24T16:20:24.799Z,99930.91
2022-08-24T16:23:00.572Z,99936.19
2022-08-24T16:25:31.649Z,99929.39
2022-08-24T16:28:05.119Z,99935.36
2022-08-24T16:30:44.037Z,99931.52
2022-08-24T16:33:32.284Z,99935.75
2022-08-24T16:36:00.447Z,99931.65
2022-08-24T16:38:31.705Z,99933.84
2022-08-24T16:41:06.319Z,99935.49
2022-08-24T16:43:36.139Z,99937.27
2022-08-24T16:46:04.207Z,99940.67
2022-08-24T16:48:32.948Z,99942.41
2022-08-24T16:51:03.441Z,99945.48
2022-08-24T16:53:30.826Z,99948.76
2022-08-24T16:55:58.408Z,99947.61
2022-08-24T16:58:30.192Z,99950.62
2022-08-24T17:00:57.670Z,99949.61
2022-08-24T17:03:26.458Z,99952.05
2022-08-24T17:05:55.005Z,99953.81
2022-08-24T17:08:22.174Z,99957.44
2022-08-24T17:10:49.307Z,99959.44
2022-08-24T17:13:39.338Z,99964.30
2022-08-24T17:16:04.965Z,99969.38
2022-08-24T17:18:34.544Z,99974.30
2022-08-24T17:21:02.330Z,99975.95
2022-08-24T17:23:30.682Z,99973.45
2022-08-24T17:25:58.242Z,99978.23
2022-08-24T17:28:27.645Z,99984.01
2022-08-24T17:30:55.081Z,99986.15
2022-08-24T17:33:23.112Z,99980.37
2022-08-24T17:35:51.922Z,99985.90
2022-08-24T17:38:18.696Z,99988.23
2022-08-24T17:40:45.417Z,99989.37
2022-08-24T17:43:12.326Z,99994.11
2022-08-24T17:45:39.871Z,99995.56
2022-08-24T17:48:06.687Z,99998.30
2022-08-24T17:50:35.066Z,100000.63
2022-08-24T17:53:01.993Z,99998.57
2022-08-24T17:55:28.891Z,100000.77
2022-08-24T17:57:55.690Z,100003.30
2022-08-24T18:00:22.500Z,100005.25
2022-08-24T18:02:49.807Z,100004.68
2022-08-24T18:05:17.113Z,100002.92
2022-08-24T18:07:53.467Z,100000.92
2022-08-24T18:10:23.959Z,100002.38
2022-08-24T18:12:50.808Z,100005.61
2022-08-24T18:15:17.731Z,100006.15
2022-08-24T18:17:48.184Z,100008.41
2022-08-24T18:20:15.572Z,100008.87
2022-08-24T18:22:47.096Z,100007.10
2022-08-24T18:25:18.155Z,100005.08
2022-08-24T18:27:45.845Z,100006.28
2022-08-24T18:30:41.424Z,100004.90
2022-08-24T18:33:08.821Z,100002.49
2022-08-24T18:35:36.266Z,99997.18
2022-08-24T18:38:03.066Z,99997.44
2022-08-24T18:40:33.369Z,100004.01
2022-08-24T18:43:00.511Z,99998.70
2022-08-24T18:45:27.398Z,99998.98
2022-08-24T18:47:56.183Z,99994.65
2022-08-24T18:50:23.982Z,99994.55
2022-08-24T18:52:50.813Z,99999.67
2022-08-24T18:55:18.255Z,100000.06
2022-08-24T18:57:45.378Z,99996.58
2022-08-24T19:00:13.076Z,99996.48
2022-08-24T19:02:40.756Z,99992.85
2022-08-24T19:05:08.146Z,99994.73
2022-08-24T19:07:39.953Z,99996.58
2022-08-24T19:10:07.709Z,99995.38
2022-08-24T19:12:39.329Z,99997.35
2022-08-24T19:15:29.150Z,99995.50
2022-08-24T19:17:58.209Z,99995.98
2022-08-24T19:20:25.063Z,99996.02
2022-08-24T19:22:53.309Z,99993.64
2022-08-24T19:25:24.439Z,99994.33
2022-08-24T19:27:53.802Z,99993.95
2022-08-24T19:30:21.124Z,99992.70
2022-08-24T19:32:48.046Z,99989.80
2022-08-24T19:35:15.837Z,99988.92
2022-08-24T19:37:43.309Z,99995.51
2022-08-24T19:40:10.545Z,99996.11
2022-08-24T19:42:37.590Z,99992.63
2022-08-24T19:45:25.689Z,99999.34
2022-08-24T19:47:52.493Z,99998.54
2022-08-24T19:50:21.241Z,99997.45
2022-08-24T19:52:48.306Z,100006.77
2022-08-24T19:55:15.262Z,100002.97
2022-08-24T19:57:48.815Z,100000.30
2022-08-24T20:00:18.749Z,100002.86
2022-08-24T20:02:49.637Z,100001.98
2022-08-24T20:05:17.122Z,100002.77
2022-08-24T20:07:44.560Z,100005.86
2022-08-24T20:10:12.930Z,100000.77
2022-08-24T20:12:40.641Z,100002.09
2022-08-24T20:15:08.066Z,100005.09
2022-08-24T20:17:36.034Z,100005.89
2022-08-24T20:20:04.699Z,100004.90
2022-08-24T20:22:31.602Z,100005.10
2022-08-24T20:24:58.365Z,100010.33
2022-08-24T20:27:26.084Z,100008.23
2022-08-24T20:29:52.992Z,100011.44
2022-08-24T20:32:20.182Z,100014.61
2022-08-24T20:34:47.028Z,100012.83
2022-08-24T20:37:22.817Z,100018.02
2022-08-24T20:39:49.725Z,100017.23
2022-08-24T20:42:21.014Z,100015.27
2022-08-24T20:44:48.412Z,100013.52
2022-08-24T20:47:15.146Z,100014.20
2022-08-24T20:49:41.950Z,100013.66
2022-08-24T20:52:08.819Z,100016.18
2022-08-24T20:54:39.484Z,100016.02
2022-08-24T20:57:12.124Z,100015.54
2022-08-24T20:59:38.871Z,100020.92
2022-08-24T21:05:01.340Z,100015.61
2022-08-24T21:07:28.154Z,100013.50
2022-08-24T21:09:54.912Z,100018.61
2022-08-24T21:12:21.662Z,100019.39
2022-08-24T21:14:48.389Z,100017.53
2022-08-24T21:17:18.501Z,100016.64
2022-08-24T21:19:45.296Z,100018.37
2022-08-24T21:22:12.134Z,100019.36
2022-08-24T21:24:40.564Z,100019.27
2022-08-24T21:27:07.310Z,100018.66
2022-08-24T21:29:34.068Z,100019.58
2022-08-24T21:32:19.432Z,100020.30
2022-08-24T21:34:46.251Z,100022.46
2022-08-24T21:37:15.322Z,100021.92
2022-08-24T21:39:42.414Z,100026.45
2022-08-24T21:42:09.662Z,100021.67
2022-08-24T21:44:36.615Z,100018.77
2022-08-24T21:47:04.868Z,100019.92
2022-08-24T21:49:31.813Z,100016.05
2022-08-24T21:51:58.551Z,100016.95
2022-08-24T21:54:25.514Z,100017.29
2022-08-24T21:56:52.441Z,100014.55
2022-08-24T21:59:19.341Z,100012.54
2022-08-24T22:01:46.274Z,100018.58
2022-08-24T22:04:13.457Z,100014.77
2022-08-24T22:06:40.210Z,100015.81
2022-08-24T22:09:07.036Z,100009.70
2022-08-24T22:11:34.056Z,100005.92
2022-08-24T22:14:01.614Z,100011.48
2022-08-24T22:16:28.498Z,100016.54
2022-08-24T22:18:55.400Z,100014.56
2022-08-24T22:21:23.710Z,100013.48
2022-08-24T22:23:50.471Z,100013.39
2022-08-24T22:26:17.284Z,100010.02
2022-08-24T22:28:44.039Z,100009.64
2022-08-24T22:31:22.584Z,100009.04
2022-08-24T22:33:49.606Z,100006.05
2022-08-24T22:36:16.770Z,100005.88
2022-08-24T22:38:43.888Z,100004.61
2022-08-24T22:41:10.685Z,99999.48
2022-08-24T22:43:55.725Z,100002.71
2022-08-24T22:46:22.867Z,99998.66
2022-08-24T22:48:49.782Z,100004.68
2022-08-24T22:51:16.592Z,100000.98
2022-08-24T22:53:43.408Z,99996.38
2022-08-24T22:56:17.951Z,99995.37
2022-08-24T22:58:44.886Z,99995.90
2022-08-24T23:01:27.421Z,99991.84
2022-08-24T23:03:55.415Z,99991.58
2022-08-24T23:06:22.261Z,99990.89
2022-08-24T23:08:49.022Z,99992.46
2022-08-24T23:11:15.995Z,99989.48
2022-08-24T23:13:42.782Z,99990.53
2022-08-24T23:16:10.781Z,99990.08
2022-08-24T23:18:56.190Z,99991.48
2022-08-24T23:21:23.080Z,99990.20
2022-08-24T23:23:50.408Z,99989.00
2022-08-24T23:26:18.313Z,99986.31
2022-08-24T23:28:46.256Z,99985.57
2022-08-24T23:31:18.465Z,99986.63
2022-08-24T23:33:45.313Z,99986.67
2022-08-24T23:36:16.976Z,99980.84
2022-08-24T23:38:43.871Z,99982.04
2022-08-24T23:41:14.599Z,99980.36
2022-08-24T23:43:41.493Z,99984.88
2022-08-24T23:46:09.242Z,99982.86
2022-08-24T23:48:38.965Z,99980.83
2022-08-24T23:51:14.017Z,99976.02
2022-08-24T23:53:46.816Z,99978.58
2022-08-24T23:56:16.686Z,99980.02
2022-08-24T23:58:43.692Z,99977.25
